createdAt,value
2017-04-17T00:00:52.102Z,67.60
2017-04-17T00:01:51.979Z,67.40
2017-04-17T00:02:51.119Z,65.60
2017-04-17T00:03:50.402Z,65.70
2017-04-17T00:04:49.566Z,63.30
2017-04-17T00:05:48.754Z,64.00
2017-04-17T00:06:47.911Z,65.40
2017-04-17T00:07:47.453Z,65.50
2017-04-17T00:08:46.610Z,65.80
2017-04-17T00:09:45.782Z,66.40
2017-04-17T00:10:44.979Z,67.20
2017-04-17T00:11:44.181Z,67.90
2017-04-17T00:12:43.342Z,68.30
2017-04-17T00:13:42.506Z,68.00
2017-04-17T00:14:41.678Z,67.60
2017-04-17T00:15:40.893Z,68.00
2017-04-17T00:16:40.062Z,66.90
2017-04-17T00:17:39.211Z,66.80
2017-04-17T00:18:39.126Z,67.70
2017-04-17T00:19:39.057Z,67.20
2017-04-17T00:20:38.260Z,67.60
2017-04-17T00:21:37.474Z,67.50
2017-04-17T00:22:36.641Z,67.60
2017-04-17T00:23:35.807Z,67.70
2017-04-17T00:24:34.977Z,66.80
2017-04-17T00:25:35.005Z,66.30
2017-04-17T00:26:34.125Z,67.10
2017-04-17T00:27:33.290Z,67.50
2017-04-17T00:28:32.411Z,67.50
2017-04-17T00:29:31.538Z,66.90
2017-04-17T00:30:30.699Z,66.90
2017-04-17T00:31:30.569Z,67.20
2017-04-17T00:32:29.691Z,67.40
2017-04-17T00:33:29.990Z,67.80
2017-04-17T00:35:28.554Z,68.50
2017-04-17T00:36:27.694Z,67.90
2017-04-17T00:37:26.818Z,68.40
2017-04-17T00:38:25.942Z,68.50
2017-04-17T00:39:25.120Z,68.50
2017-04-17T00:40:24.246Z,69.00
2017-04-17T00:41:23.367Z,69.10
2017-04-17T00:42:22.486Z,69.60
2017-04-17T00:43:21.607Z,69.10
2017-04-17T00:44:20.734Z,69.10
2017-04-17T00:45:19.890Z,68.70
2017-04-17T00:46:19.010Z,68.70
2017-04-17T00:47:18.143Z,69.40
2017-04-17T00:48:17.273Z,69.70
2017-04-17T00:49:16.427Z,69.90
2017-04-17T00:50:15.585Z,69.80
2017-04-17T00:51:15.486Z,70.20
2017-04-17T00:52:15.382Z,70.20
2017-04-17T00:53:14.521Z,70.10
2017-04-17T00:54:13.706Z,70.30
2017-04-17T00:55:12.842Z,70.10
2017-04-17T00:56:11.977Z,69.80
2017-04-17T00:57:11.172Z,69.40
2017-04-17T00:58:10.319Z,69.30
2017-04-17T00:59:10.194Z,69.60
2017-04-17T01:00:09.358Z,70.20
2017-04-17T01:01:08.505Z,70.40
2017-04-17T01:02:07.634Z,70.30
2017-04-17T01:03:06.823Z,69.90
2017-04-17T01:04:05.983Z,70.20
2017-04-17T01:05:05.195Z,70.30
2017-04-17T01:06:04.359Z,70.00
2017-04-17T01:07:03.489Z,70.30
2017-04-17T01:08:02.629Z,68.90
2017-04-17T01:09:01.767Z,69.30
2017-04-17T01:10:00.882Z,69.50
2017-04-17T01:11:00.817Z,69.60
2017-04-17T01:11:59.945Z,69.90
2017-04-17T01:12:59.075Z,69.90
2017-04-17T01:13:58.211Z,69.70
2017-04-17T01:14:57.334Z,70.10
2017-04-17T01:15:56.483Z,69.90
2017-04-17T01:16:55.785Z,70.40
2017-04-17T01:17:54.936Z,70.60
2017-04-17T01:18:54.075Z,70.90
2017-04-17T01:19:53.947Z,71.90
2017-04-17T01:20:53.082Z,71.10
2017-04-17T01:21:52.219Z,71.10
2017-04-17T01:22:51.382Z,71.30
2017-04-17T01:23:50.518Z,70.70
2017-04-17T01:24:49.643Z,71.70
2017-04-17T01:25:48.861Z,71.30
2017-04-17T01:26:48.022Z,70.40
2017-04-17T01:27:47.210Z,70.50
2017-04-17T01:28:46.654Z,70.30
2017-04-17T01:29:45.810Z,70.80
2017-04-17T01:30:45.008Z,71.40
2017-04-17T01:31:44.158Z,71.80
2017-04-17T01:32:43.359Z,71.90
2017-04-17T01:33:42.528Z,71.70
2017-04-17T01:34:41.723Z,71.60
2017-04-17T01:35:40.873Z,71.30
2017-04-17T01:36:40.070Z,71.90
2017-04-17T01:37:39.970Z,72.40
2017-04-17T01:38:39.246Z,72.50
2017-04-17T01:39:38.409Z,72.10
2017-04-17T01:40:37.603Z,71.30
2017-04-17T01:41:36.765Z,70.40
2017-04-17T01:42:35.923Z,70.20
2017-04-17T01:43:35.082Z,70.70
2017-04-17T01:44:34.250Z,71.10
2017-04-17T01:45:33.414Z,71.40
2017-04-17T01:46:32.662Z,71.70
2017-04-17T01:47:31.809Z,71.60
2017-04-17T01:48:31.016Z,70.60
2017-04-17T01:49:30.174Z,70.30
2017-04-17T01:50:29.366Z,70.40
2017-04-17T01:51:28.530Z,70.20
2017-04-17T01:52:27.687Z,69.60
2017-04-17T01:53:27.595Z,68.90
2017-04-17T01:54:27.540Z,68.90
2017-04-17T01:55:26.702Z,69.00
2017-04-17T01:56:25.898Z,69.00
2017-04-17T01:57:25.008Z,69.20
2017-04-17T01:58:24.120Z,69.10
2017-04-17T01:59:23.232Z,69.10
2017-04-17T02:00:22.358Z,69.00
2017-04-17T02:01:21.499Z,69.10
2017-04-17T02:02:20.637Z,68.90
2017-04-17T02:03:19.819Z,68.90
2017-04-17T02:04:18.986Z,68.90
2017-04-17T02:05:18.101Z,69.00
2017-04-17T02:06:17.224Z,68.90
2017-04-17T02:07:16.350Z,68.70
2017-04-17T02:08:15.556Z,68.80
2017-04-17T02:09:14.929Z,68.60
2017-04-17T02:10:14.043Z,68.40
2017-04-17T02:11:13.152Z,68.70
2017-04-17T02:12:12.261Z,69.10
2017-04-17T02:13:12.208Z,69.50
2017-04-17T02:14:11.395Z,69.60
2017-04-17T02:15:10.504Z,69.50
2017-04-17T02:16:09.608Z,69.40
2017-04-17T02:17:08.708Z,69.60
2017-04-17T02:18:07.812Z,69.40
2017-04-17T02:19:07.668Z,69.00
2017-04-17T02:20:06.814Z,69.00
2017-04-17T02:21:05.936Z,69.60
2017-04-17T02:22:05.037Z,69.00
2017-04-17T02:23:04.173Z,68.70
2017-04-17T02:24:03.285Z,68.50
2017-04-17T02:25:02.396Z,68.50
2017-04-17T02:26:01.545Z,68.50
2017-04-17T02:27:00.656Z,68.50
2017-04-17T02:27:59.765Z,68.50
2017-04-17T02:28:58.888Z,68.40
2017-04-17T02:29:57.986Z,69.10
2017-04-17T02:30:57.105Z,68.50
2017-04-17T02:31:56.712Z,68.30
2017-04-17T02:32:55.812Z,68.20
2017-04-17T02:33:54.916Z,68.20
2017-04-17T02:34:54.776Z,68.20
2017-04-17T02:35:53.873Z,68.20
2017-04-17T02:36:52.972Z,68.10
2017-04-17T02:37:52.112Z,68.00
2017-04-17T02:38:51.249Z,67.80
2017-04-17T02:39:50.389Z,67.90
2017-04-17T02:40:49.500Z,68.00
2017-04-17T02:41:48.652Z,68.10
2017-04-17T02:42:47.754Z,68.30
2017-04-17T02:43:46.897Z,68.40
2017-04-17T02:44:46.745Z,68.40
2017-04-17T02:45:45.853Z,69.20
2017-04-17T02:46:44.968Z,68.60
2017-04-17T02:47:44.818Z,68.70
2017-04-17T02:48:43.925Z,68.70
2017-04-17T02:49:43.052Z,68.60
2017-04-17T02:50:42.887Z,68.40
2017-04-17T02:51:42.005Z,68.40
2017-04-17T02:52:41.104Z,68.40
2017-04-17T02:53:40.221Z,68.40
2017-04-17T02:54:39.329Z,68.30
2017-04-17T02:55:38.477Z,68.40
2017-04-17T02:56:38.322Z,68.40
2017-04-17T02:57:37.428Z,68.50
2017-04-17T02:58:36.601Z,68.50
2017-04-17T02:59:35.713Z,68.60
2017-04-17T03:00:34.826Z,68.60
2017-04-17T03:01:34.708Z,68.40
2017-04-17T03:02:33.818Z,68.40
2017-04-17T03:03:33.673Z,68.20
2017-04-17T03:04:33.548Z,68.30
2017-04-17T03:05:32.656Z,68.30
2017-04-17T03:06:31.773Z,68.40
2017-04-17T03:07:31.071Z,68.00
2017-04-17T03:08:30.172Z,68.00
2017-04-17T03:09:30.019Z,68.50
2017-04-17T03:10:29.137Z,68.60
2017-04-17T03:11:28.260Z,68.70
2017-04-17T03:12:27.381Z,68.80
2017-04-17T03:13:26.524Z,68.90
2017-04-17T03:14:26.396Z,68.80
2017-04-17T03:15:25.512Z,68.80
2017-04-17T03:16:25.359Z,68.70
2017-04-17T03:17:24.467Z,68.60
2017-04-17T03:18:23.576Z,68.50
2017-04-17T03:19:22.946Z,68.40
2017-04-17T03:20:22.044Z,68.20
2017-04-17T03:21:21.151Z,68.10
2017-04-17T03:22:20.993Z,67.60
2017-04-17T03:23:20.128Z,67.60
2017-04-17T03:24:19.272Z,67.70
2017-04-17T03:25:18.428Z,68.10
2017-04-17T03:26:17.540Z,68.80
2017-04-17T03:27:16.656Z,68.40
2017-04-17T03:28:15.790Z,68.60
2017-04-17T03:29:14.896Z,68.70
2017-04-17T03:30:14.004Z,68.60
2017-04-17T03:31:13.924Z,68.40
2017-04-17T03:32:13.125Z,68.40
2017-04-17T03:33:12.290Z,68.50
2017-04-17T03:34:11.528Z,68.40
2017-04-17T03:35:10.720Z,68.20
2017-04-17T03:36:09.896Z,68.20
2017-04-17T03:37:09.109Z,68.10
2017-04-17T03:38:08.285Z,68.10
2017-04-17T03:39:07.451Z,67.60
2017-04-17T03:40:07.352Z,67.30
2017-04-17T03:41:06.509Z,67.40
2017-04-17T03:42:05.680Z,67.70
2017-04-17T03:43:04.904Z,68.10
2017-04-17T03:44:04.074Z,68.30
2017-04-17T03:45:03.228Z,67.90
2017-04-17T03:46:02.397Z,68.00
2017-04-17T03:47:01.550Z,68.10
2017-04-17T03:48:00.725Z,67.90
2017-04-17T03:49:01.648Z,67.90
2017-04-17T03:50:00.806Z,68.10
2017-04-17T03:50:59.985Z,68.60
2017-04-17T03:51:59.150Z,68.90
2017-04-17T03:52:59.057Z,68.90
2017-04-17T03:53:58.229Z,69.20
2017-04-17T03:54:58.181Z,69.40
2017-04-17T03:55:57.350Z,69.10
2017-04-17T03:56:56.517Z,69.60
2017-04-17T03:57:55.692Z,69.60
2017-04-17T03:58:55.024Z,69.80
2017-04-17T03:59:54.195Z,69.50
2017-04-17T04:00:53.401Z,69.40
2017-04-17T04:01:52.565Z,69.10
2017-04-17T04:02:52.469Z,68.90
2017-04-17T04:03:52.372Z,68.90
2017-04-17T04:04:52.301Z,69.00
2017-04-17T04:05:51.485Z,69.40
2017-04-17T04:06:50.775Z,69.60
2017-04-17T04:07:49.945Z,69.60
2017-04-17T04:08:49.109Z,69.60
2017-04-17T04:09:48.281Z,69.60
2017-04-17T04:10:47.461Z,69.80
2017-04-17T04:11:46.656Z,69.90
2017-04-17T04:12:46.045Z,70.10
2017-04-17T04:13:45.210Z,70.30
2017-04-17T04:14:44.373Z,70.50
2017-04-17T04:15:43.541Z,71.60
2017-04-17T04:16:43.446Z,70.90
2017-04-17T04:17:43.354Z,71.00
2017-04-17T04:18:43.314Z,70.80
2017-04-17T04:19:42.473Z,70.70
2017-04-17T04:20:41.649Z,70.20
2017-04-17T04:21:40.812Z,69.70
2017-04-17T04:22:39.977Z,69.90
2017-04-17T04:23:39.154Z,69.90
2017-04-17T04:24:38.364Z,69.70
2017-04-17T04:25:37.541Z,69.70
2017-04-17T04:26:36.709Z,69.80
2017-04-17T04:27:35.864Z,69.80
2017-04-17T04:28:35.032Z,70.30
2017-04-17T04:29:34.936Z,69.50
2017-04-17T04:30:35.017Z,69.10
2017-04-17T04:31:34.180Z,69.20
2017-04-17T04:32:33.560Z,69.50
2017-04-17T04:33:32.730Z,69.60
2017-04-17T04:34:31.897Z,69.60
2017-04-17T04:35:31.808Z,69.20
2017-04-17T04:36:31.761Z,69.00
2017-04-17T04:37:30.924Z,68.80
2017-04-17T04:38:30.121Z,68.90
2017-04-17T04:39:29.288Z,68.90
2017-04-17T04:40:28.472Z,69.00
2017-04-17T04:41:27.639Z,69.00
2017-04-17T04:42:27.828Z,69.10
2017-04-17T04:43:27.031Z,69.20
2017-04-17T04:44:26.361Z,69.00
2017-04-17T04:45:25.538Z,69.70
2017-04-17T04:46:24.703Z,70.20
2017-04-17T04:47:23.877Z,70.60
2017-04-17T04:48:23.079Z,70.80
2017-04-17T04:49:22.985Z,71.40
2017-04-17T04:50:22.140Z,70.80
2017-04-17T04:51:21.314Z,71.10
2017-04-17T04:52:20.476Z,71.10
2017-04-17T04:53:19.665Z,70.90
2017-04-17T04:54:18.877Z,70.40
2017-04-17T04:55:18.045Z,69.70
2017-04-17T04:56:17.285Z,69.20
2017-04-17T04:57:16.444Z,69.00
2017-04-17T04:58:15.623Z,69.10
2017-04-17T04:59:14.790Z,69.30
2017-04-17T05:00:14.133Z,69.60
2017-04-17T05:01:13.300Z,69.70
2017-04-17T05:02:12.510Z,69.40
2017-04-17T05:03:11.669Z,69.50
2017-04-17T05:04:10.828Z,69.50
2017-04-17T05:05:09.991Z,69.60
2017-04-17T05:06:09.358Z,69.50
2017-04-17T05:07:08.531Z,69.50
2017-04-17T05:08:07.692Z,69.40
2017-04-17T05:09:06.857Z,69.30
2017-04-17T05:10:06.774Z,68.30
2017-04-17T05:11:05.936Z,68.40
2017-04-17T05:12:05.306Z,68.30
2017-04-17T05:13:04.472Z,68.40
2017-04-17T05:14:03.637Z,68.80
2017-04-17T05:15:02.808Z,69.40
2017-04-17T05:16:01.974Z,70.20
2017-04-17T05:17:01.141Z,70.40
2017-04-17T05:18:00.348Z,70.40
2017-04-17T05:18:59.516Z,70.60
2017-04-17T05:19:58.685Z,70.80
2017-04-17T05:20:57.900Z,70.70
2017-04-17T05:21:57.103Z,70.50
2017-04-17T05:22:56.272Z,70.60
2017-04-17T05:23:55.432Z,70.60
2017-04-17T05:24:54.600Z,70.90
2017-04-17T05:25:53.760Z,70.90
2017-04-17T05:26:53.704Z,70.60
2017-04-17T05:27:52.870Z,70.60
2017-04-17T05:28:52.057Z,70.70
2017-04-17T05:29:51.670Z,71.00
2017-04-17T05:30:50.835Z,71.30
2017-04-17T05:31:50.001Z,71.50
2017-04-17T05:32:49.374Z,71.70
2017-04-17T05:33:48.481Z,71.70
2017-04-17T05:34:47.584Z,71.30
2017-04-17T05:35:47.445Z,70.50
2017-04-17T05:36:46.552Z,70.10
2017-04-17T05:37:46.563Z,69.90
2017-04-17T05:38:45.708Z,69.70
2017-04-17T05:39:44.818Z,69.60
2017-04-17T05:40:43.932Z,69.40
2017-04-17T05:41:43.789Z,69.50
2017-04-17T05:42:43.317Z,69.50
2017-04-17T05:43:42.460Z,69.70
2017-04-17T05:44:41.781Z,69.60
2017-04-17T05:45:41.645Z,69.40
2017-04-17T05:46:40.773Z,69.60
2017-04-17T05:47:40.171Z,69.90
2017-04-17T05:48:39.615Z,69.70
2017-04-17T05:49:38.769Z,69.30
2017-04-17T05:50:39.500Z,69.80
2017-04-17T05:51:40.101Z,70.40
2017-04-17T05:52:39.218Z,70.90
2017-04-17T05:53:38.335Z,71.10
2017-04-17T05:54:37.453Z,71.00
2017-04-17T05:55:36.564Z,70.90
2017-04-17T05:56:36.465Z,70.60
2017-04-17T05:57:36.318Z,69.80
2017-04-17T05:58:35.468Z,70.10
2017-04-17T05:59:34.581Z,70.40
2017-04-17T06:00:33.692Z,70.80
2017-04-17T06:01:32.809Z,71.10
2017-04-17T06:02:32.124Z,71.50
2017-04-17T06:03:31.237Z,71.60
2017-04-17T06:04:30.352Z,71.60
2017-04-17T06:05:29.457Z,71.60
2017-04-17T06:06:28.573Z,71.40
2017-04-17T06:07:27.693Z,70.70
2017-04-17T06:08:26.833Z,70.30
2017-04-17T06:09:26.240Z,70.20
2017-04-17T06:10:25.361Z,70.40
2017-04-17T06:11:24.472Z,70.50
2017-04-17T06:12:23.576Z,70.60
2017-04-17T06:14:22.333Z,69.50
2017-04-17T06:15:21.440Z,69.70
2017-04-17T06:16:20.551Z,69.70
2017-04-17T06:17:19.656Z,69.40
2017-04-17T06:18:18.745Z,70.10
2017-04-17T06:19:17.901Z,70.70
2017-04-17T06:20:17.061Z,71.20
2017-04-17T06:21:16.160Z,71.60
2017-04-17T06:22:15.272Z,71.70
2017-04-17T06:23:14.369Z,71.60
2017-04-17T06:24:13.508Z,71.00
2017-04-17T06:25:12.684Z,70.00
2017-04-17T06:26:11.963Z,69.60
2017-04-17T06:27:11.207Z,69.10
2017-04-17T06:28:10.313Z,69.20
2017-04-17T06:29:09.429Z,69.60
2017-04-17T06:30:08.536Z,69.80
2017-04-17T06:31:07.645Z,70.10
2017-04-17T06:32:06.795Z,70.30
2017-04-17T06:33:05.908Z,70.30
2017-04-17T06:34:05.761Z,70.10
2017-04-17T06:35:04.880Z,70.20
2017-04-17T06:36:03.993Z,70.30
2017-04-17T06:37:03.100Z,70.10
2017-04-17T06:38:02.240Z,69.40
2017-04-17T06:39:01.355Z,68.70
2017-04-17T06:39:59.701Z,69.40
2017-04-17T06:40:59.564Z,69.30
2017-04-17T06:41:58.677Z,69.40
2017-04-17T06:42:57.949Z,69.60
2017-04-17T06:43:57.098Z,69.90
2017-04-17T06:44:56.217Z,70.00
2017-04-17T06:45:55.329Z,69.80
2017-04-17T06:46:54.440Z,69.60
2017-04-17T06:47:53.555Z,69.40
2017-04-17T06:48:53.389Z,69.80
2017-04-17T06:49:52.500Z,69.90
2017-04-17T06:50:52.359Z,69.90
2017-04-17T06:51:51.477Z,70.50
2017-04-17T06:52:50.580Z,70.70
2017-04-17T06:53:50.432Z,70.90
2017-04-17T06:54:49.741Z,70.80
2017-04-17T06:55:48.849Z,70.60
2017-04-17T06:56:47.992Z,70.30
2017-04-17T06:57:47.410Z,70.20
2017-04-17T06:58:46.529Z,70.10
2017-04-17T06:59:46.388Z,70.20
2017-04-17T07:00:45.552Z,70.50
2017-04-17T07:01:45.404Z,70.40
2017-04-17T07:02:47.452Z,68.90
2017-04-17T07:03:46.560Z,68.10
2017-04-17T07:04:45.665Z,68.00
2017-04-17T07:05:44.780Z,68.00
2017-04-17T07:06:44.097Z,68.00
2017-04-17T07:07:43.210Z,67.90
2017-04-17T07:08:43.064Z,67.90
2017-04-17T07:09:42.173Z,68.00
2017-04-17T07:10:41.725Z,68.00
2017-04-17T07:11:40.833Z,67.70
2017-04-17T07:12:39.985Z,67.10
2017-04-17T07:13:39.105Z,67.10
2017-04-17T07:14:38.261Z,67.20
2017-04-17T07:15:37.384Z,66.60
2017-04-17T07:16:36.501Z,66.40
2017-04-17T07:17:35.614Z,66.30
2017-04-17T07:18:34.756Z,66.10
2017-04-17T07:19:34.150Z,65.10
2017-04-17T07:20:33.292Z,64.70
2017-04-17T07:21:32.893Z,64.60
2017-04-17T07:22:32.005Z,64.40
2017-04-17T07:23:31.109Z,64.20
2017-04-17T07:24:30.259Z,63.80
2017-04-17T07:25:29.492Z,63.80
2017-04-17T07:26:28.648Z,63.80
2017-04-17T07:27:27.835Z,63.90
2017-04-17T07:28:27.023Z,63.80
2017-04-17T07:29:26.185Z,63.60
2017-04-17T07:30:25.414Z,63.70
2017-04-17T07:31:24.572Z,63.60
2017-04-17T07:32:23.741Z,62.90
2017-04-17T07:33:22.923Z,62.60
2017-04-17T07:34:22.088Z,62.20
2017-04-17T07:35:21.263Z,61.70
2017-04-17T07:36:21.228Z,61.90
2017-04-17T07:37:20.392Z,62.20
2017-04-17T07:38:19.551Z,62.30
2017-04-17T07:39:19.453Z,62.30
2017-04-17T07:40:18.628Z,62.50
2017-04-17T07:41:18.537Z,61.30
2017-04-17T07:42:18.484Z,61.60
2017-04-17T07:43:17.648Z,61.70
2017-04-17T07:44:16.826Z,62.80
2017-04-17T07:45:16.888Z,63.10
2017-04-17T07:46:16.181Z,64.30
2017-04-17T07:47:15.382Z,65.40
2017-04-17T07:48:14.576Z,66.10
2017-04-17T07:49:13.918Z,66.30
2017-04-17T07:50:13.097Z,66.00
2017-04-17T07:51:12.264Z,65.20
2017-04-17T07:52:11.441Z,64.70
2017-04-17T07:53:10.613Z,64.50
2017-04-17T07:54:09.854Z,65.20
2017-04-17T07:55:11.393Z,65.20
2017-04-17T07:56:10.625Z,66.00
2017-04-17T07:57:10.528Z,66.30
2017-04-17T07:58:10.440Z,65.90
2017-04-17T07:59:09.605Z,65.60
2017-04-17T08:00:08.779Z,65.10
2017-04-17T08:01:07.997Z,64.50
2017-04-17T08:02:07.165Z,64.10
2017-04-17T08:03:06.331Z,64.10
2017-04-17T08:04:05.484Z,64.30
2017-04-17T08:05:04.675Z,64.10
2017-04-17T08:06:03.873Z,63.60
2017-04-17T08:07:03.289Z,63.00
2017-04-17T08:08:02.460Z,63.20
2017-04-17T08:09:01.630Z,63.70
2017-04-17T08:10:00.796Z,64.30
2017-04-17T08:10:59.964Z,64.80
2017-04-17T08:11:59.867Z,64.60
2017-04-17T08:12:59.845Z,65.30
2017-04-17T08:13:59.014Z,66.00
2017-04-17T08:14:58.182Z,66.40
2017-04-17T08:15:57.377Z,66.00
2017-04-17T08:16:56.551Z,64.40
2017-04-17T08:17:55.728Z,65.40
2017-04-17T08:18:55.078Z,66.60
2017-04-17T08:19:54.268Z,66.20
2017-04-17T08:20:53.425Z,66.20
2017-04-17T08:21:52.597Z,65.60
2017-04-17T08:22:51.744Z,66.30
2017-04-17T08:23:51.644Z,67.70
2017-04-17T08:24:50.825Z,67.80
2017-04-17T08:25:49.977Z,68.10
2017-04-17T08:26:49.072Z,69.20
2017-04-17T08:27:48.161Z,68.70
2017-04-17T08:28:47.256Z,67.70
2017-04-17T08:29:46.354Z,69.80
2017-04-17T08:30:45.835Z,69.50
2017-04-17T08:31:44.927Z,70.40
2017-04-17T08:32:44.031Z,70.30
2017-04-17T08:33:43.128Z,70.60
2017-04-17T08:34:43.002Z,71.90
2017-04-17T08:35:42.108Z,72.90
2017-04-17T08:36:41.248Z,73.00
2017-04-17T08:37:40.354Z,72.50
2017-04-17T08:38:39.472Z,72.00
2017-04-17T08:39:38.591Z,73.30
2017-04-17T08:40:37.695Z,73.30
2017-04-17T08:41:36.805Z,73.70
2017-04-17T08:42:35.948Z,73.10
2017-04-17T08:43:35.065Z,72.00
2017-04-17T08:44:34.180Z,71.80
2017-04-17T08:45:33.281Z,72.50
2017-04-17T08:46:33.128Z,73.00
2017-04-17T08:47:32.284Z,74.20
2017-04-17T08:48:31.413Z,73.40
2017-04-17T08:49:30.516Z,72.20
2017-04-17T08:50:29.619Z,72.20
2017-04-17T08:51:28.786Z,72.00
2017-04-17T08:52:27.893Z,71.30
2017-04-17T08:53:27.000Z,71.30
2017-04-17T08:54:26.556Z,69.70
2017-04-17T08:55:25.693Z,68.90
2017-04-17T08:56:24.813Z,70.10
2017-04-17T08:57:23.940Z,70.40
2017-04-17T08:58:23.799Z,69.30
2017-04-17T08:59:23.576Z,70.30
2017-04-17T09:00:22.745Z,70.50
2017-04-17T09:01:21.861Z,70.40
2017-04-17T09:02:20.976Z,70.20
2017-04-17T09:03:20.091Z,70.20
2017-04-17T09:04:19.955Z,70.10
2017-04-17T09:05:19.070Z,69.60
2017-04-17T09:06:18.237Z,69.60
2017-04-17T09:07:17.353Z,68.50
2017-04-17T09:08:17.205Z,68.40
2017-04-17T09:09:16.320Z,66.70
2017-04-17T09:10:15.424Z,66.80
2017-04-17T09:11:14.536Z,67.50
2017-04-17T09:12:13.713Z,68.30
2017-04-17T09:13:13.585Z,67.70
2017-04-17T09:14:12.697Z,68.60
2017-04-17T09:15:12.552Z,69.60
2017-04-17T09:16:11.669Z,69.50
2017-04-17T09:17:10.780Z,69.50
2017-04-17T09:18:10.689Z,69.60
2017-04-17T09:19:09.805Z,69.30
2017-04-17T09:20:08.905Z,69.50
2017-04-17T09:21:08.004Z,69.40
2017-04-17T09:22:07.102Z,69.20
2017-04-17T09:23:06.215Z,68.10
2017-04-17T09:24:06.151Z,66.70
2017-04-17T09:25:05.247Z,65.70
2017-04-17T09:26:04.375Z,65.70
2017-04-17T09:27:03.467Z,65.00
2017-04-17T09:28:03.303Z,64.60
2017-04-17T09:29:02.404Z,64.10
2017-04-17T09:30:01.544Z,64.30
2017-04-17T09:31:01.384Z,64.90
2017-04-17T09:32:00.488Z,64.50
2017-04-17T09:32:59.597Z,64.20
2017-04-17T09:33:58.700Z,65.00
2017-04-17T09:34:58.585Z,63.40
2017-04-17T09:35:57.964Z,62.90
2017-04-17T09:36:57.064Z,63.20
2017-04-17T09:37:56.176Z,62.60
2017-04-17T09:38:56.015Z,61.40
2017-04-17T09:39:55.119Z,61.90
2017-04-17T09:40:54.223Z,64.40
2017-04-17T09:41:53.376Z,63.60
2017-04-17T09:42:52.502Z,63.10
2017-04-17T09:44:51.759Z,63.30
2017-04-17T09:45:50.864Z,62.00
2017-04-17T09:46:49.964Z,62.40
2017-04-17T09:47:49.346Z,63.20
2017-04-17T09:48:48.446Z,64.30
2017-04-17T09:49:47.560Z,61.40
2017-04-17T09:50:47.691Z,62.50
2017-04-17T09:51:46.804Z,64.00
2017-04-17T09:52:45.968Z,64.50
2017-04-17T09:53:45.105Z,64.60
2017-04-17T09:54:44.220Z,64.70
2017-04-17T09:55:43.400Z,61.80
2017-04-17T09:56:42.503Z,62.20
2017-04-17T09:57:41.612Z,61.70
2017-04-17T09:58:40.716Z,62.40
2017-04-17T09:59:39.894Z,62.30
2017-04-17T10:00:38.988Z,60.40
2017-04-17T10:01:38.092Z,59.50
2017-04-17T10:02:37.965Z,59.80
2017-04-17T10:03:37.126Z,61.50
2017-04-17T10:04:36.240Z,60.20
2017-04-17T10:05:35.736Z,59.70
2017-04-17T10:06:34.831Z,60.00
2017-04-17T10:07:33.947Z,60.30
2017-04-17T10:08:34.083Z,60.40
2017-04-17T10:09:33.228Z,58.10
2017-04-17T10:10:32.325Z,60.30
2017-04-17T10:11:31.451Z,59.10
2017-04-17T10:12:30.561Z,58.00
2017-04-17T10:13:29.690Z,58.10
2017-04-17T10:14:28.807Z,58.30
2017-04-17T10:15:27.933Z,59.10
2017-04-17T10:16:27.043Z,60.20
2017-04-17T10:17:26.180Z,60.50
2017-04-17T10:18:26.071Z,61.20
2017-04-17T10:19:25.214Z,59.90
2017-04-17T10:20:24.660Z,59.70
2017-04-17T10:21:23.764Z,57.80
2017-04-17T10:22:23.164Z,57.50
2017-04-17T10:23:23.291Z,54.70
2017-04-17T10:24:23.169Z,55.00
2017-04-17T10:25:23.055Z,56.60
2017-04-17T10:26:22.195Z,52.40
2017-04-17T10:27:21.288Z,50.50
2017-04-17T10:28:20.376Z,52.40
2017-04-17T10:29:19.477Z,53.70
2017-04-17T10:30:18.599Z,54.70
2017-04-17T10:31:17.709Z,52.90
2017-04-17T10:32:17.653Z,52.20
2017-04-17T10:33:16.744Z,53.10
2017-04-17T10:36:04.196Z,52.70
2017-04-17T10:37:03.287Z,52.80
2017-04-17T10:38:02.381Z,52.30
2017-04-17T10:39:01.480Z,54.20
2017-04-17T10:40:01.444Z,49.20
2017-04-17T10:41:00.551Z,47.50
2017-04-17T10:41:59.648Z,48.40
2017-04-17T10:42:58.742Z,47.70
2017-04-17T10:43:58.572Z,49.20
2017-04-17T10:44:57.659Z,48.60
2017-04-17T10:45:56.789Z,47.60
2017-04-17T10:46:56.035Z,48.30
2017-04-17T10:47:55.148Z,49.80
2017-04-17T10:48:54.252Z,50.20
2017-04-17T10:49:53.359Z,49.60
2017-04-17T10:50:52.465Z,49.40
2017-04-17T10:51:51.812Z,48.20
2017-04-17T10:52:50.912Z,48.30
2017-04-17T10:53:50.016Z,48.10
2017-04-17T10:54:49.861Z,49.10
2017-04-17T10:55:48.961Z,48.00
2017-04-17T10:56:48.063Z,46.70
2017-04-17T10:57:47.352Z,48.30
2017-04-17T10:58:46.457Z,49.00
2017-04-17T10:59:45.566Z,48.10
2017-04-17T11:00:44.695Z,47.10
2017-04-17T11:01:43.811Z,46.40
2017-04-17T11:02:42.930Z,46.60
2017-04-17T11:03:42.086Z,45.40
2017-04-17T11:04:41.204Z,45.40
2017-04-17T11:05:40.313Z,47.20
2017-04-17T11:06:39.449Z,48.10
2017-04-17T11:07:38.812Z,46.80
2017-04-17T11:08:37.988Z,46.70
2017-04-17T11:09:37.297Z,47.50
2017-04-17T11:10:36.533Z,48.20
2017-04-17T11:11:35.845Z,48.10
2017-04-17T11:12:35.170Z,48.20
2017-04-17T11:13:34.381Z,46.30
2017-04-17T11:14:34.010Z,44.70
2017-04-17T11:15:33.577Z,45.80
2017-04-17T11:16:33.680Z,43.80
2017-04-17T11:17:33.986Z,43.70
2017-04-17T11:18:33.262Z,43.20
2017-04-17T11:19:33.011Z,43.80
2017-04-17T11:20:32.885Z,43.80
2017-04-17T11:21:32.088Z,44.80
2017-04-17T11:22:32.805Z,44.10
2017-04-17T11:23:32.429Z,46.00
2017-04-17T11:24:31.603Z,45.40
2017-04-17T11:25:31.487Z,44.70
2017-04-17T11:26:31.393Z,44.00
2017-04-17T11:27:30.601Z,44.70
2017-04-17T11:29:30.508Z,42.70
2017-04-17T11:30:30.453Z,43.10
2017-04-17T11:31:29.652Z,43.00
2017-04-17T11:32:28.832Z,42.60
2017-04-17T11:33:28.305Z,44.00
2017-04-17T11:34:27.459Z,45.10
2017-04-17T11:35:26.607Z,44.80
2017-04-17T11:36:25.776Z,45.10
2017-04-17T11:37:24.940Z,44.90
2017-04-17T11:38:24.104Z,44.50
2017-04-17T11:39:23.357Z,44.70
2017-04-17T11:40:22.872Z,45.40
2017-04-17T11:41:22.057Z,45.70
2017-04-17T11:42:21.229Z,45.20
2017-04-17T11:43:20.379Z,44.40
2017-04-17T11:44:19.549Z,44.00
2017-04-17T11:45:19.247Z,45.90
2017-04-17T11:46:18.419Z,46.10
2017-04-17T11:47:17.591Z,44.70
2017-04-17T11:48:16.800Z,45.90
2017-04-17T11:49:15.955Z,46.00
2017-04-17T11:50:15.169Z,45.10
2017-04-17T11:51:14.384Z,43.80
2017-04-17T11:52:13.556Z,43.60
2017-04-17T11:53:12.713Z,43.70
2017-04-17T11:54:11.889Z,42.20
2017-04-17T11:55:11.060Z,44.00
2017-04-17T11:56:10.999Z,41.50
2017-04-17T11:57:10.199Z,41.20
2017-04-17T11:58:09.411Z,40.00
2017-04-17T11:59:08.620Z,40.40
2017-04-17T12:00:07.787Z,40.60
2017-04-17T12:01:06.972Z,40.10
2017-04-17T12:02:06.140Z,39.90
2017-04-17T12:03:05.321Z,38.40
2017-04-17T12:04:04.520Z,38.30
2017-04-17T12:05:03.748Z,37.00
2017-04-17T12:06:02.941Z,36.30
2017-04-17T12:07:02.109Z,37.30
2017-04-17T12:08:01.260Z,38.80
2017-04-17T12:09:00.365Z,38.30
2017-04-17T12:10:00.208Z,37.40
2017-04-17T12:10:59.340Z,37.70
2017-04-17T12:11:58.439Z,38.80
2017-04-17T12:12:57.549Z,38.40
2017-04-17T12:13:56.668Z,39.10
2017-04-17T12:14:55.778Z,38.20
2017-04-17T12:15:54.908Z,37.40
2017-04-17T12:16:54.065Z,36.70
2017-04-17T12:17:53.917Z,36.60
2017-04-17T12:18:53.025Z,37.40
2017-04-17T12:19:52.134Z,37.90
2017-04-17T12:20:51.238Z,38.00
2017-04-17T12:21:50.348Z,37.80
2017-04-17T12:22:49.510Z,38.70
2017-04-17T12:23:48.629Z,38.10
2017-04-17T12:24:47.733Z,37.20
2017-04-17T12:25:46.848Z,38.00
2017-04-17T12:26:45.952Z,37.60
2017-04-17T12:27:45.057Z,37.40
2017-04-17T12:28:44.217Z,37.00
2017-04-17T12:29:44.080Z,37.80
2017-04-17T12:30:43.241Z,37.10
2017-04-17T12:31:42.395Z,36.80
2017-04-17T12:32:42.300Z,37.40
2017-04-17T12:33:42.157Z,37.20
2017-04-17T12:34:41.304Z,37.30
2017-04-17T12:35:40.397Z,37.30
2017-04-17T12:36:39.499Z,36.00
2017-04-17T12:37:38.595Z,35.30
2017-04-17T12:38:37.700Z,35.90
2017-04-17T12:39:36.794Z,36.00
2017-04-17T12:40:36.003Z,36.20
2017-04-17T12:41:35.836Z,36.20
2017-04-17T12:42:34.931Z,35.60
2017-04-17T12:43:34.027Z,35.30
2017-04-17T12:44:33.148Z,36.00
2017-04-17T12:45:32.253Z,35.10
2017-04-17T12:46:32.156Z,34.80
2017-04-17T12:47:32.281Z,35.40
2017-04-17T12:48:31.384Z,34.60
2017-04-17T12:49:31.800Z,34.40